Time;durP1;ratioP1;P1;durP2;ratioP2;P2;SDS_P1;SDS_P2;PMS_P1;PMS_P2;Temp;Humidity;BMP_temperature;BMP_pressure;BME280_temperature;BME280_humidity;BME280_pressure;Samples;Min_cycle;Max_cycle;Signal;HPM_P1;HPM_P2
2021/07/03 00:01:26;;;;;;;6.23;1.07;;;;;;;;;;4855624;28;20576;-77
2021/07/03 00:03:49;;;;;;;3.80;0.80;;;;;;;;;;4863386;28;20240;-77
2021/07/03 00:06:11;;;;;;;3.30;0.67;;;15.30;1.00;;;;;;4859241;28;20244;-76
2021/07/03 00:08:34;;;;;;;6.20;1.17;;;15.20;1.00;;;;;;4862737;28;20706;-76
2021/07/03 00:11:00;;;;;;;1.93;0.47;;;15.20;1.00;;;;;;4878741;28;20193;-74
2021/07/03 00:13:23;;;;;;;9.33;1.67;;;;;;;;;;4877641;28;20185;-77
2021/07/03 00:15:45;;;;;;;3.93;0.80;;;15.10;1.00;;;;;;4878297;28;20197;-77
2021/07/03 00:18:08;;;;;;;3.03;0.60;;;;;;;;;;4878420;28;20193;-80
2021/07/03 00:20:31;;;;;;;9.20;1.53;;;;;;;;;;4874880;28;20553;-79
2021/07/03 00:22:54;;;;;;;3.40;0.67;;;15.10;1.00;;;;;;4859232;28;20694;-79
2021/07/03 00:25:17;;;;;;;2.43;0.43;;;;;;;;;;4858922;28;20194;-78
2021/07/03 00:27:41;;;;;;;4.03;0.73;;;15.00;1.00;;;;;;4859682;28;20677;-78
2021/07/03 00:30:05;;;;;;;3.97;0.70;;;14.90;1.00;;;;;;4877429;28;20286;-75
2021/07/03 00:32:28;;;;;;;8.80;1.53;;;;;;;;;;4859365;28;20213;-76
2021/07/03 00:34:51;;;;;;;3.30;0.70;;;;;;;;;;4858885;28;20190;-76
2021/07/03 00:37:14;;;;;;;2.83;0.60;;;14.70;1.00;;;;;;4858968;28;20182;-76
2021/07/03 00:39:37;;;;;;;1.63;0.40;;;;;;;;;;4858800;28;20216;-73
2021/07/03 00:41:59;;;;;;;1.93;0.43;;;;;;;;;;4857675;28;20240;-76
2021/07/03 00:44:28;;;;;;;4.93;0.90;;;15.00;1.00;;;;;;4858630;28;20260;-76
2021/07/03 00:46:51;;;;;;;3.37;0.70;;;;;;;;;;4857607;28;20229;-76
2021/07/03 00:49:15;;;;;;;2.83;0.57;;;14.90;1.00;;;;;;4858683;28;20251;-78
2021/07/03 00:51:38;;;;;;;2.23;0.53;;;;;;;;;;4865725;28;20227;-78
2021/07/03 00:54:02;;;;;;;3.00;0.60;;;15.30;1.00;;;;;;4875859;28;20201;-75
2021/07/03 00:56:27;;;;;;;7.40;1.40;;;15.00;1.00;;;;;;4876520;28;20821;-75
2021/07/03 00:58:50;;;;;;;4.90;0.97;;;15.20;1.00;;;;;;4877818;28;20247;-76
2021/07/03 01:01:15;;;;;;;1.97;0.50;;;14.90;1.00;;;;;;4863098;28;20217;-76
2021/07/03 01:03:38;;;;;;;1.93;0.47;;;15.20;1.00;;;;;;4859355;28;20194;-77
2021/07/03 01:06:02;;;;;;;4.60;0.87;;;15.00;1.00;;;;;;4840553;28;20191;-77
2021/07/03 01:08:25;;;;;;;7.50;1.47;;;;;;;;;;4856850;28;20552;-78
2021/07/03 01:10:48;;;;;;;4.80;1.07;;;;;;;;;;4858949;28;20713;-80
2021/07/03 01:13:17;;;;;;;1.67;0.50;;;15.30;1.00;;;;;;4876005;28;20254;-80
2021/07/03 01:15:40;;;;;;;2.40;0.47;;;14.70;1.00;;;;;;4876687;28;20201;-79
2021/07/03 01:18:05;;;;;;;2.53;0.60;;;15.00;1.00;;;;;;4876446;28;20236;-77
2021/07/03 01:20:28;;;;;;;6.33;1.27;;;15.30;6.00;;;;;;4874549;28;20205;-76
2021/07/03 01:22:52;;;;;;;3.43;0.80;;;15.00;1.00;;;;;;4877444;28;20587;-75
2021/07/03 01:25:17;;;;;;;2.97;0.63;;;15.20;21.80;;;;;;4876263;28;20257;-77
2021/07/03 01:27:41;;;;;;;3.07;0.63;;;;;;;;;;4876343;28;20694;-79
2021/07/03 01:30:05;;;;;;;2.27;0.50;;;15.60;35.10;;;;;;4869730;28;20317;-77
2021/07/03 01:32:29;;;;;;;7.97;1.67;;;;;;;;;;4840233;28;20195;-78
2021/07/03 01:34:52;;;;;;;3.23;0.80;;;;;;;;;;4856320;28;20256;-77
2021/07/03 01:37:24;;;;;;;6.67;1.40;;;;;;;;;;4857842;28;20580;-79
2021/07/03 01:39:53;;;;;;;6.00;1.30;;;15.10;15.00;;;;;;4856041;28;20198;-76
2021/07/03 01:42:16;;;;;;;3.00;0.73;;;15.50;10.20;;;;;;4861406;28;20201;-77
2021/07/03 01:44:39;;;;;;;1.20;0.30;;;15.70;22.70;;;;;;4875605;28;20205;-77
2021/07/03 01:47:03;;;;;;;2.37;0.60;;;15.30;1.00;;;;;;4876998;28;20248;-77
2021/07/03 01:49:26;;;;;;;7.37;1.50;;;15.40;2.10;;;;;;4875790;28;20726;-78
2021/07/03 01:51:50;;;;;;;2.57;0.70;;;15.10;21.40;;;;;;4874370;28;20248;-75
2021/07/03 01:54:14;;;;;;;2.97;0.70;;;15.20;23.50;;;;;;4875776;28;20239;-76
2021/07/03 01:56:43;;;;;;;2.57;0.73;;;15.60;25.70;;;;;;4875955;28;20653;-79
2021/07/03 01:59:10;;;;;;;2.77;0.80;;;;;;;;;;4876007;28;20205;-78
2021/07/03 02:01:45;;;;;;;3.27;0.63;;;;;;;;;;4846422;28;20647;-79
2021/07/03 02:04:10;;;;;;;3.50;0.80;;;;;;;;;;4856161;28;20251;-76
2021/07/03 02:06:40;;;;;;;2.40;0.53;;;15.20;22.60;;;;;;4857732;28;20595;-76
2021/07/03 02:09:06;;;;;;;2.77;0.70;;;15.40;18.20;;;;;;4856546;28;20233;-77
2021/07/03 02:11:29;;;;;;;7.13;1.47;;;15.80;15.60;;;;;;4866241;28;20193;-76
2021/07/03 02:14:02;;;;;;;2.70;0.63;;;15.50;12.40;;;;;;4875951;28;20197;-77
2021/07/03 02:16:32;;;;;;;5.50;1.27;;;;;;;;;;4879213;28;20201;-79
2021/07/03 02:18:56;;;;;;;2.37;0.60;;;;;;;;;;4879185;28;20221;-77
2021/07/03 02:21:25;;;;;;;7.00;1.47;;;16.00;1.00;;;;;;4870174;28;20232;-78
2021/07/03 02:23:49;;;;;;;2.53;0.60;;;;;;;;;;4860458;28;20676;-79
2021/07/03 02:26:11;;;;;;;2.30;0.57;;;;;;;;;;4861443;28;20243;-75
2021/07/03 02:28:36;;;;;;;2.00;0.50;;;;;;;;;;4859440;28;20255;-74
2021/07/03 02:31:09;;;;;;;2.80;0.60;;;15.60;1.00;;;;;;4861354;28;20178;-80
2021/07/03 02:33:35;;;;;;;4.00;0.80;;;15.60;1.00;;;;;;4867399;28;20194;-75
2021/07/03 02:36:00;;;;;;;1.93;0.43;;;15.90;1.00;;;;;;4824551;28;20195;-77
2021/07/03 02:38:26;;;;;;;4.53;1.00;;;;;;;;;;4841049;28;20630;-74
2021/07/03 02:40:49;;;;;;;2.53;0.60;;;16.00;1.00;;;;;;4841247;28;20210;-77
2021/07/03 02:43:13;;;;;;;2.73;0.70;;;15.90;1.00;;;;;;4840863;28;20195;-76
2021/07/03 02:45:38;;;;;;;1.23;0.40;;;;;;;;;;4848852;28;20198;-76
2021/07/03 02:48:02;;;;;;;2.43;0.63;;;16.10;1.00;;;;;;4880629;28;20624;-73
2021/07/03 02:50:25;;;;;;;2.37;0.60;;;16.30;1.00;;;;;;4879054;28;20266;-77
2021/07/03 02:52:52;;;;;;;2.50;0.60;;;;;;;;;;4880157;28;20241;-72
2021/07/03 02:55:15;;;;;;;3.77;0.90;;;16.00;1.00;;;;;;4876104;28;20201;-75
2021/07/03 02:57:40;;;;;;;4.10;0.87;;;16.30;1.00;;;;;;4865363;28;20193;-79
2021/07/03 03:00:06;;;;;;;3.83;0.80;;;16.20;1.00;;;;;;4879535;28;20544;-77
2021/07/03 03:02:30;;;;;;;6.37;1.43;;;16.50;1.00;;;;;;4865620;28;20190;-75
2021/07/03 03:04:56;;;;;;;1.87;0.53;;;15.90;1.00;;;;;;4861082;28;20617;-77
2021/07/03 03:07:19;;;;;;;2.37;0.57;;;16.60;1.00;;;;;;4864682;28;20244;-75
2021/07/03 03:09:44;;;;;;;2.27;0.57;;;16.50;1.00;;;;;;4881626;28;20221;-76
2021/07/03 03:12:08;;;;;;;2.63;0.63;;;16.40;1.00;;;;;;4849651;28;20201;-77
2021/07/03 03:14:33;;;;;;;5.67;1.27;;;15.60;1.00;;;;;;4863342;28;20186;-75
2021/07/03 03:16:58;;;;;;;0.97;0.30;;;;;;;;;;4845896;28;20214;-74
2021/07/03 03:19:21;;;;;;;4.27;0.93;;;;;;;;;;4878494;28;20204;-74
2021/07/03 03:21:46;;;;;;;2.80;0.60;;;16.60;99.90;;;;;;4881934;28;20224;-74
2021/07/03 03:24:09;;;;;;;2.03;0.53;;;16.70;99.90;;;;;;4847189;28;20195;-76
2021/07/03 03:26:32;;;;;;;4.00;0.93;;;16.40;99.90;;;;;;4859731;28;20289;-75
2021/07/03 03:28:57;;;;;;;1.57;0.40;;;;;;;;;;4872322;28;20287;-80
2021/07/03 03:31:20;;;;;;;4.87;1.10;;;16.50;99.90;;;;;;4877943;28;20291;-79
2021/07/03 03:33:47;;;;;;;5.13;1.17;;;;;;;;;;4877093;28;20202;-78
2021/07/03 03:36:10;;;;;;;2.37;0.60;;;;;;;;;;4873036;28;20259;-79
2021/07/03 03:38:34;;;;;;;4.07;1.00;;;17.00;1.00;;;;;;4860765;28;20197;-75
2021/07/03 03:40:58;;;;;;;1.63;0.43;;;;;;;;;;4878206;28;20210;-78
2021/07/03 03:43:21;;;;;;;6.23;1.30;;;16.80;99.90;;;;;;4854863;28;20261;-79
2021/07/03 03:45:44;;;;;;;4.20;0.90;;;17.10;1.00;;;;;;4858750;28;20202;-75
2021/07/03 03:48:09;;;;;;;3.03;0.70;;;17.20;1.00;;;;;;4876338;28;20233;-76
2021/07/03 03:50:37;;;;;;;1.53;0.40;;;16.90;1.00;;;;;;4861369;28;20253;-77
2021/07/03 03:53:00;;;;;;;2.07;0.47;;;17.40;99.90;;;;;;4861392;28;20205;-75
2021/07/03 03:55:26;;;;;;;6.77;1.37;;;16.90;1.00;;;;;;4877724;28;20205;-82
2021/07/03 03:57:49;;;;;;;3.10;0.70;;;16.70;1.00;;;;;;4847757;28;20230;-80
2021/07/03 04:00:17;;;;;;;2.53;0.63;;;17.50;1.00;;;;;;4858581;28;20222;-75
2021/07/03 04:02:40;;;;;;;2.30;0.57;;;16.90;16.90;;;;;;4858333;28;20170;-75
2021/07/03 04:05:03;;;;;;;2.90;0.67;;;16.70;45.40;;;;;;4859518;28;20244;-75
2021/07/03 04:07:26;;;;;;;6.23;1.33;;;16.00;99.90;;;;;;4869074;28;20189;-75
2021/07/03 04:09:51;;;;;;;2.73;0.70;;;;;;;;;;4877592;28;20640;-75
2021/07/03 04:12:37;;;;;;;6.70;1.47;;;17.20;99.90;;;;;;4877379;28;20178;-76
2021/07/03 04:15:19;;;;;;;2.60;0.67;;;16.70;1.00;;;;;;4878304;28;20182;-76
2021/07/03 04:18:02;;;;;;;3.03;0.70;;;;;;;;;;4863480;28;20192;-75
2021/07/03 04:20:44;;;;;;;3.97;0.83;;;16.80;1.00;;;;;;4859197;28;20648;-75
2021/07/03 04:23:26;;;;;;;5.13;1.23;;;;;;;;;;4859338;28;20540;-77
2021/07/03 04:26:07;;;;;;;2.57;0.60;;;17.00;1.00;;;;;;4844740;28;20524;-75
2021/07/03 04:28:49;;;;;;;5.00;1.07;;;17.00;99.90;;;;;;4858075;28;20181;-77
2021/07/03 04:31:30;;;;;;;5.73;1.27;;;16.70;1.00;;;;;;4858838;28;20210;-79
2021/07/03 04:34:22;;;;;;;7.67;1.57;;;;;;;;;;4857701;28;20547;-75
2021/07/03 04:37:03;;;;;;;3.37;0.77;;;;;;;;;;4864237;28;20198;-76
2021/07/03 04:39:45;;;;;;;2.93;0.70;;;;;;;;;;4856760;28;20198;-83
2021/07/03 04:42:26;;;;;;;6.03;1.33;;;;;;;;;;4858942;28;20628;-75
2021/07/03 04:45:09;;;;;;;2.13;0.57;;;16.90;99.90;;;;;;4859066;28;20206;-81
2021/07/03 04:47:52;;;;;;;3.07;0.70;;;;;;;;;;4870276;28;20674;-81
2021/07/03 04:50:34;;;;;;;5.83;1.27;;;17.10;1.00;;;;;;4877006;28;20209;-81
2021/07/03 04:53:15;;;;;;;2.00;0.50;;;;;;;;;;4878243;28;20173;-81
2021/07/03 04:55:58;;;;;;;1.00;0.30;;;;;;;;;;4866570;28;20186;-79
2021/07/03 04:58:39;;;;;;;0.97;0.33;;;;;;;;;;4858934;28;20178;-79
2021/07/03 05:01:21;;;;;;;4.63;1.03;;;17.00;99.90;;;;;;4856646;28;20213;-82
2021/07/03 05:04:02;;;;;;;2.37;0.60;;;16.90;54.70;;;;;;4844768;28;20193;-76
2021/07/03 05:06:43;;;;;;;3.17;0.70;;;17.20;1.00;;;;;;4857809;28;20512;-75
2021/07/03 05:09:24;;;;;;;5.03;1.13;;;15.50;99.90;;;;;;4857462;28;20209;-82
2021/07/03 05:12:25;;;;;;;6.47;1.40;;;;;;;;;;4866032;28;20332;-81
2021/07/03 05:15:07;;;;;;;3.10;0.80;;;17.20;99.90;;;;;;4876651;28;20178;-75
2021/07/03 05:17:49;;;;;;;2.47;0.57;;;17.20;99.90;;;;;;4877641;28;20170;-75
2021/07/03 05:20:30;;;;;;;4.43;1.00;;;17.20;99.90;;;;;;4875335;28;20197;-75
2021/07/03 05:23:11;;;;;;;2.43;0.50;;;;;;;;;;4852148;28;20222;-75
2021/07/03 05:25:53;;;;;;;3.13;0.67;;;;;;;;;;4838319;28;20214;-75
2021/07/03 05:28:34;;;;;;;5.97;1.33;;;;;;;;;;4838249;28;20210;-75
2021/07/03 05:31:15;;;;;;;2.17;0.50;;;17.40;99.90;;;;;;4890316;28;20564;-76
2021/07/03 05:33:58;;;;;;;1.70;0.40;;;17.60;1.00;;;;;;4877508;28;20174;-77
2021/07/03 05:36:39;;;;;;;2.17;0.57;;;17.50;1.00;;;;;;4866981;28;20193;-75
2021/07/03 05:39:20;;;;;;;4.43;0.97;;;18.20;1.00;;;;;;4864165;28;20221;-78
2021/07/03 05:42:01;;;;;;;1.73;0.43;;;17.80;1.00;;;;;;4857928;28;20190;-82
2021/07/03 05:44:42;;;;;;;3.33;0.70;;;;;;;;;;4856970;28;20178;-76
2021/07/03 05:47:24;;;;;;;6.23;1.27;;;;;;;;;;4857767;28;20213;-75
2021/07/03 05:50:08;;;;;;;2.70;0.60;;;18.50;99.90;;;;;;4857507;28;20222;-76
2021/07/03 05:52:50;;;;;;;2.47;0.60;;;18.70;1.00;;;;;;4857081;28;20210;-76
2021/07/03 05:55:31;;;;;;;5.53;1.20;;;;;;;;;;4856263;28;20201;-74
2021/07/03 05:58:10;;;;;;;2.87;0.60;;;18.80;99.90;;;;;;4855355;28;20197;-75
2021/07/03 06:00:51;;;;;;;2.43;0.60;;;;;;;;;;4856117;28;20292;-76
2021/07/03 06:03:32;;;;;;;3.20;0.73;;;;;;;;;;4856341;28;20191;-74
2021/07/03 06:06:14;;;;;;;2.10;0.47;;;18.80;1.00;;;;;;4857919;28;20183;-75
2021/07/03 06:08:55;;;;;;;1.90;0.40;;;18.50;1.00;;;;;;4857888;28;20170;-76
2021/07/03 06:11:37;;;;;;;8.17;1.67;;;;;;;;;;4872869;28;20627;-75
2021/07/03 06:14:18;;;;;;;1.93;0.43;;;;;;;;;;4857850;28;20174;-75
2021/07/03 06:17:00;;;;;;;1.33;0.40;;;19.30;1.00;;;;;;4857856;28;20553;-76
2021/07/03 06:19:41;;;;;;;2.43;0.53;;;18.80;99.90;;;;;;4857354;28;20170;-80
2021/07/03 06:22:23;;;;;;;3.77;0.77;;;18.80;1.00;;;;;;4889998;28;20177;-77
2021/07/03 06:25:06;;;;;;;2.47;0.60;;;19.80;1.00;;;;;;4876850;28;20178;-77
2021/07/03 06:27:47;;;;;;;3.13;0.60;;;19.20;1.00;;;;;;4876042;28;20261;-75
2021/07/03 06:30:28;;;;;;;6.50;1.37;;;;;;;;;;4862771;28;20182;-74
2021/07/03 06:33:09;;;;;;;2.73;0.57;;;;;;;;;;4875925;28;20178;-75
2021/07/03 06:35:50;;;;;;;3.23;0.70;;;;;;;;;;4876425;28;20186;-75
2021/07/03 06:38:30;;;;;;;4.87;0.97;;;20.50;1.00;;;;;;4876745;28;20218;-78
2021/07/03 06:41:11;;;;;;;2.23;0.60;;;;;;;;;;4863156;28;20182;-75
2021/07/03 06:43:33;;;;;;;5.87;1.30;;;20.70;1.00;;;;;;4857702;28;20195;-76
2021/07/03 06:45:56;;;;;;;2.13;0.50;;;;;;;;;;4855516;28;20199;-75
2021/07/03 06:48:21;;;;;;;1.33;0.40;;;;;;;;;;4839414;28;20676;-77
2021/07/03 06:50:43;;;;;;;2.67;0.53;;;;;;;;;;4863326;28;20187;-75
2021/07/03 06:53:06;;;;;;;2.53;0.60;;;21.30;99.90;;;;;;4857289;28;20188;-76
2021/07/03 06:55:30;;;;;;;6.70;1.37;;;21.40;99.90;;;;;;4856883;28;20186;-78
2021/07/03 06:57:53;;;;;;;2.97;0.70;;;21.70;99.90;;;;;;4857254;28;20210;-75
2021/07/03 07:00:16;;;;;;;3.93;0.83;;;21.30;1.00;;;;;;4839399;28;20217;-75
2021/07/03 07:02:39;;;;;;;1.83;0.50;;;;;;;;;;4857432;28;20417;-77
2021/07/03 07:05:01;;;;;;;1.90;0.47;;;;;;;;;;4860716;28;20531;-74
2021/07/03 07:07:24;;;;;;;8.77;1.70;;;21.00;99.90;;;;;;4861348;28;20246;-74
2021/07/03 07:09:47;;;;;;;2.63;0.60;;;;;;;;;;4879473;28;20665;-78
2021/07/03 07:12:11;;;;;;;2.83;0.67;;;20.80;99.90;;;;;;4845290;28;20243;-73
2021/07/03 07:14:33;;;;;;;5.83;1.27;;;22.00;99.90;;;;;;4842759;28;20199;-74
2021/07/03 07:16:56;;;;;;;3.50;0.77;;;22.00;99.90;;;;;;4859911;28;20193;-74
2021/07/03 07:19:19;;;;;;;1.90;0.47;;;;;;;;;;4866299;28;20213;-75
2021/07/03 07:21:42;;;;;;;2.30;0.53;;;;;;;;;;4877864;28;20289;-75
2021/07/03 07:24:05;;;;;;;3.67;0.80;;;21.80;1.00;;;;;;4878303;28;20195;-79
2021/07/03 07:26:28;;;;;;;6.57;1.33;;;22.30;1.00;;;;;;4879337;28;20185;-75
2021/07/03 07:28:52;;;;;;;2.47;0.53;;;22.70;1.00;;;;;;4877904;28;20256;-80
2021/07/03 07:31:14;;;;;;;3.03;0.73;;;23.00;97.10;;;;;;4863973;28;20190;-77
2021/07/03 07:33:37;;;;;;;7.93;1.57;;;23.50;84.20;;;;;;4876676;28;20203;-74
2021/07/03 07:36:00;;;;;;;4.67;0.90;;;;;;;;;;4859674;28;20203;-74
2021/07/03 07:38:41;;;;;;;0.97;0.27;;;23.50;59.80;;;;;;4860509;28;20184;-80
2021/07/03 07:41:22;;;;;;;4.93;1.00;;;23.50;50.00;;;;;;4874916;28;20227;-74
2021/07/03 07:44:05;;;;;;;4.17;0.87;;;23.10;1.00;;;;;;4878493;28;20181;-75
2021/07/03 07:46:46;;;;;;;2.53;0.53;;;23.50;34.30;;;;;;4879156;28;20221;-75
2021/07/03 07:49:27;;;;;;;7.40;1.40;;;22.90;1.00;;;;;;4878981;28;20176;-75
2021/07/03 07:52:09;;;;;;;3.97;0.83;;;;;;;;;;4860085;28;20209;-74
2021/07/03 07:54:50;;;;;;;3.50;0.80;;;23.50;22.30;;;;;;4871662;28;20184;-75
2021/07/03 07:57:31;;;;;;;6.23;1.23;;;23.00;24.50;;;;;;4857748;28;20188;-77
2021/07/03 08:00:17;;;;;;;2.60;0.60;;;23.70;12.70;;;;;;4858863;28;20213;-75
2021/07/03 08:02:59;;;;;;;2.77;0.60;;;;;;;;;;4856009;28;20218;-76
2021/07/03 08:05:39;;;;;;;1.87;0.47;;;24.20;1.00;;;;;;4859237;28;20271;-74
2021/07/03 08:08:20;;;;;;;1.67;0.43;;;;;;;;;;4860297;28;20181;-74
2021/07/03 08:11:01;;;;;;;1.57;0.33;;;23.20;1.00;;;;;;4858856;28;20644;-78
2021/07/03 08:13:43;;;;;;;2.20;0.43;;;;;;;;;;4859491;28;20191;-78
2021/07/03 08:16:25;;;;;;;3.90;0.80;;;23.40;1.00;;;;;;4868985;28;20189;-77
2021/07/03 08:19:06;;;;;;;2.67;0.57;;;;;;;;;;4873845;28;20201;-78
2021/07/03 08:21:47;;;;;;;3.20;0.70;;;;;;;;;;4858523;28;20185;-82
2021/07/03 08:24:28;;;;;;;8.57;1.67;;;23.20;1.00;;;;;;4859316;28;20186;-75
2021/07/03 08:27:09;;;;;;;2.63;0.60;;;24.30;1.00;;;;;;4875943;28;20696;-74
2021/07/03 08:29:50;;;;;;;3.30;0.70;;;;;;;;;;4859000;28;20189;-73
2021/07/03 08:32:33;;;;;;;7.57;1.53;;;23.90;99.90;;;;;;4862769;28;20227;-74
2021/07/03 08:35:15;;;;;;;3.47;0.73;;;23.30;1.00;;;;;;4876815;28;20187;-74
2021/07/03 08:37:56;;;;;;;2.67;0.53;;;23.80;1.00;;;;;;4878541;28;20188;-76
2021/07/03 08:40:37;;;;;;;7.27;1.47;;;24.00;1.00;;;;;;4876788;28;20635;-75
2021/07/03 08:43:18;;;;;;;3.47;0.70;;;25.40;1.00;;;;;;4859056;28;20174;-74
2021/07/03 08:46:00;;;;;;;2.87;0.60;;;25.70;99.90;;;;;;4841883;28;20675;-74
2021/07/03 08:48:43;;;;;;;2.07;0.43;;;26.20;1.00;;;;;;4857772;28;20182;-76
2021/07/03 08:51:24;;;;;;;8.60;1.63;;;;;;;;;;4857417;28;20223;-72
2021/07/03 08:54:05;;;;;;;3.30;0.70;;;;;;;;;;4856807;28;20192;-76
2021/07/03 08:56:47;;;;;;;3.53;0.60;;;25.90;1.00;;;;;;4854990;28;20191;-73
2021/07/03 08:59:30;;;;;;;9.50;1.53;;;;;;;;;;4858621;28;20215;-81
2021/07/03 09:02:11;;;;;;;5.47;1.03;;;;;;;;;;4858723;28;20195;-77
2021/07/03 09:04:53;;;;;;;4.60;0.90;;;25.90;99.90;;;;;;4858193;28;20191;-74
2021/07/03 09:07:36;;;;;;;9.80;1.60;;;25.70;99.90;;;;;;4856663;28;20258;-74
2021/07/03 09:10:26;;;;;;;5.17;0.90;;;24.90;1.00;;;;;;4856806;28;20171;-78
2021/07/03 09:13:08;;;;;;;4.63;0.90;;;;;;;;;;4874219;28;20202;-80
2021/07/03 09:15:49;;;;;;;6.70;1.10;;;25.20;1.00;;;;;;4866534;28;20194;-74
2021/07/03 09:18:31;;;;;;;11.43;2.00;;;;;;;;;;4856481;28;20186;-75
2021/07/03 09:21:16;;;;;;;5.33;0.93;;;24.50;99.90;;;;;;4866922;28;20187;-76
2021/07/03 09:23:58;;;;;;;5.93;1.10;;;24.40;99.90;;;;;;4859897;28;20206;-76
2021/07/03 09:26:40;;;;;;;3.23;0.60;;;;;;;;;;4857479;28;20182;-76
2021/07/03 09:29:21;;;;;;;3.60;0.70;;;;;;;;;;4856949;28;20182;-76
2021/07/03 09:32:08;;;;;;;3.93;0.77;;;24.60;1.00;;;;;;4872530;28;20189;-78
2021/07/03 09:34:49;;;;;;;5.27;0.97;;;;;;;;;;4838346;28;20211;-78
2021/07/03 09:37:32;;;;;;;9.23;1.63;;;25.50;99.90;;;;;;4849867;28;20645;-75
2021/07/03 09:40:13;;;;;;;5.63;1.00;;;;;;;;;;4856926;28;20191;-73
2021/07/03 09:42:54;;;;;;;5.50;1.00;;;;;;;;;;4869141;28;20530;-74
2021/07/03 09:45:36;;;;;;;11.23;1.87;;;;;;;;;;4872977;28;20189;-77
2021/07/03 09:48:17;;;;;;;6.13;1.10;;;;;;;;;;4856875;28;20185;-75
2021/07/03 09:51:09;;;;;;;7.50;1.00;;;28.80;99.90;;;;;;4857322;28;20181;-74
2021/07/03 09:53:51;;;;;;;9.00;1.27;;;30.40;1.00;;;;;;4856458;28;20213;-76
2021/07/03 09:56:33;;;;;;;16.83;2.30;;;;;;;;;;4857825;28;20204;-75
2021/07/03 09:59:14;;;;;;;6.45;1.00;;;;;;;;;;4854943;28;20670;-76
2021/07/03 10:01:56;;;;;;;11.77;1.63;;;37.00;16.10;;;;;;4853095;28;20273;-75
2021/07/03 10:04:37;;;;;;;291.02;269.05;;;;;;;;;;4855913;28;20182;-74
2021/07/03 10:07:24;;;;;;;295.83;273.63;;;38.80;1.00;;;;;;4852930;28;20212;-72
2021/07/03 10:10:12;;;;;;;401.65;374.65;;;38.80;1.00;;;;;;4856507;28;20197;-74
2021/07/03 10:12:59;;;;;;;101.95;95.22;;;39.50;99.90;;;;;;4854785;28;20213;-73
2021/07/03 10:15:41;;;;;;;237.20;223.88;;;;;;;;;;4855429;28;20178;-73
2021/07/03 10:18:23;;;;;;;102.95;96.10;;;38.50;99.90;;;;;;4856021;28;20210;-73
2021/07/03 10:21:10;;;;;;;33.75;31.00;;;38.10;99.90;;;;;;4854241;28;20621;-75
2021/07/03 10:23:52;;;;;;;14.60;6.07;;;37.80;99.90;;;;;;4856238;28;20186;-74
2021/07/03 10:26:47;;;;;;;21.40;4.55;;;36.80;99.90;;;;;;4870641;28;20526;-75
2021/07/03 10:29:28;;;;;;;27.20;6.88;;;37.00;99.90;;;;;;4863977;28;20185;-80
2021/07/03 10:32:20;;;;;;;10.73;3.15;;;38.00;99.90;;;;;;4862022;28;20410;-74
2021/07/03 10:35:09;;;;;;;6.40;1.92;;;37.90;1.00;;;;;;4857317;28;20201;-76
2021/07/03 10:37:52;;;;;;;16.70;3.30;;;38.00;72.70;;;;;;4859726;28;20222;-73
2021/07/03 10:40:36;;;;;;;15.23;2.20;;;37.40;99.90;;;;;;4860575;28;20253;-75
2021/07/03 10:43:21;;;;;;;7.65;1.10;;;37.40;69.50;;;;;;4859030;28;20182;-75
2021/07/03 10:46:02;;;;;;;13.68;2.10;;;36.30;1.00;;;;;;4862406;28;20178;-73
2021/07/03 10:48:43;;;;;;;7.13;1.15;;;;;;;;;;4879818;28;20541;-75
2021/07/03 10:51:32;;;;;;;18.13;2.60;;;37.80;52.50;;;;;;4880320;28;20185;-76
2021/07/03 10:54:19;;;;;;;8.57;1.50;;;38.60;99.90;;;;;;4841815;28;20558;-74
2021/07/03 10:57:04;;;;;;;4.80;0.93;;;39.30;99.90;;;;;;4840876;28;20527;-78
2021/07/03 10:59:47;;;;;;;7.72;1.80;;;40.60;99.90;;;;;;4875002;28;20205;-77
2021/07/03 11:02:31;;;;;;;209.38;197.10;;;41.40;99.90;;;;;;4869043;28;20186;-75
2021/07/03 11:05:15;;;;;;;394.40;370.60;;;42.60;99.90;;;;;;4859915;28;20177;-76
2021/07/03 11:07:56;;;;;;;378.67;356.45;;;;;;;;;;4870290;28;20216;-75
2021/07/03 11:10:38;;;;;;;340.08;318.00;;;43.40;99.90;;;;;;4879744;28;20209;-72
2021/07/03 11:13:22;;;;;;;192.52;183.00;;;44.20;99.90;;;;;;4879927;28;20181;-73
2021/07/03 11:16:07;;;;;;;260.63;247.27;;;44.90;99.90;;;;;;4878360;28;20177;-76
2021/07/03 11:18:49;;;;;;;200.27;189.70;;;;;;;;;;4879005;28;20209;-78
2021/07/03 11:21:31;;;;;;;188.38;177.38;;;43.10;99.90;;;;;;4841454;28;20182;-76
2021/07/03 11:24:12;;;;;;;243.48;230.82;;;;;;;;;;4841294;28;20206;-77
2021/07/03 11:26:59;;;;;;;150.18;142.00;;;39.90;99.90;;;;;;4841490;28;20703;-78
2021/07/03 11:29:43;;;;;;;29.95;28.13;;;39.00;99.90;;;;;;4852096;28;20181;-78
2021/07/03 11:32:27;;;;;;;26.90;14.10;;;38.50;99.90;;;;;;4868656;28;20225;-77
2021/07/03 11:35:09;;;;;;;11.13;8.07;;;37.90;58.60;;;;;;4841424;28;20266;-79
2021/07/03 11:37:50;;;;;;;11.23;9.50;;;38.90;32.70;;;;;;4841470;28;20171;-76
2021/07/03 11:40:33;;;;;;;27.27;13.13;;;40.50;99.90;;;;;;4841086;28;20183;-76
2021/07/03 11:43:14;;;;;;;33.63;31.15;;;41.60;2.20;;;;;;4850156;28;20880;-75
2021/07/03 11:45:55;;;;;;;35.25;32.78;;;;;;;;;;4873569;28;20256;-76
2021/07/03 11:48:38;;;;;;;110.47;102.22;;;43.40;99.90;;;;;;4861626;28;20186;-77
2021/07/03 11:51:20;;;;;;;38.00;35.60;;;43.80;99.90;;;;;;4871429;28;20177;-74
2021/07/03 11:54:03;;;;;;;23.38;21.75;;;43.90;1.00;;;;;;4877730;28;20181;-76
2021/07/03 11:56:56;;;;;;;14.40;9.95;;;43.60;1.00;;;;;;4867285;28;20181;-75
2021/07/03 11:59:38;;;;;;;68.93;63.50;;;43.70;20.40;;;;;;4876330;28;20209;-72
2021/07/03 12:02:20;;;;;;;67.38;63.83;;;;;;;;;;4866392;28;20202;-75
2021/07/03 12:05:02;;;;;;;24.33;22.60;;;42.60;99.90;;;;;;4859642;28;20206;-74
2021/07/03 12:07:43;;;;;;;7.22;4.05;;;41.70;1.00;;;;;;4840939;28;20552;-77
2021/07/03 12:10:33;;;;;;;17.75;2.60;;;40.60;99.90;;;;;;4840548;28;20644;-75
2021/07/03 12:13:20;;;;;;;5.97;0.82;;;40.50;1.00;;;;;;4840818;28;20644;-74
2021/07/03 12:16:07;;;;;;;2.72;0.43;;;38.90;99.90;;;;;;4854162;28;20181;-74
2021/07/03 12:18:50;;;;;;;8.88;1.30;;;38.20;1.00;;;;;;4878995;28;20516;-74
2021/07/03 12:21:35;;;;;;;7.43;1.30;;;37.20;99.90;;;;;;4878681;28;20201;-76
2021/07/03 12:24:16;;;;;;;34.58;4.32;;;;;;;;;;4871946;28;20206;-73
2021/07/03 12:26:59;;;;;;;9.07;1.30;;;35.60;1.00;;;;;;4859123;28;20576;-79
2021/07/03 12:29:40;;;;;;;4.10;0.60;;;34.60;99.90;;;;;;4867939;28;20185;-75
2021/07/03 12:32:21;;;;;;;3.25;0.50;;;33.40;1.00;;;;;;4870373;28;20655;-76
2021/07/03 12:35:10;;;;;;;5.03;0.77;;;33.30;1.00;;;;;;4873222;28;20213;-73
2021/07/03 12:37:59;;;;;;;7.40;1.10;;;32.50;1.00;;;;;;4840154;28;20183;-75
2021/07/03 12:40:43;;;;;;;5.13;0.77;;;31.90;99.90;;;;;;4840200;28;20175;-75
2021/07/03 12:43:31;;;;;;;15.10;2.00;;;31.30;99.90;;;;;;4873100;28;20193;-71
2021/07/03 12:46:12;;;;;;;5.43;0.73;;;30.30;1.00;;;;;;4878268;28;20244;-80
2021/07/03 12:48:54;;;;;;;6.88;0.95;;;30.20;99.90;;;;;;4875034;28;20213;-74
2021/07/03 12:51:37;;;;;;;8.93;1.25;;;29.30;1.00;;;;;;4852378;28;20209;-79
2021/07/03 12:54:20;;;;;;;8.77;1.17;;;29.40;99.90;;;;;;4860018;28;20182;-78
2021/07/03 12:57:02;;;;;;;4.50;0.70;;;29.00;99.90;;;;;;4859135;28;20210;-78
2021/07/03 12:59:45;;;;;;;6.30;0.90;;;28.50;99.90;;;;;;4858786;28;20204;-77
2021/07/03 13:02:26;;;;;;;15.47;1.97;;;;;;;;;;4855779;28;20228;-77
2021/07/03 13:05:10;;;;;;;5.23;0.73;;;27.70;99.90;;;;;;4855519;28;20681;-75
2021/07/03 13:07:51;;;;;;;6.27;0.87;;;;;;;;;;4870801;28;20190;-77
2021/07/03 13:10:35;;;;;;;12.93;1.70;;;26.70;1.00;;;;;;4858618;28;20186;-79
2021/07/03 13:13:16;;;;;;;6.23;0.90;;;;;;;;;;4858993;28;20211;-77
2021/07/03 13:15:58;;;;;;;6.03;0.90;;;;;;;;;;4858802;28;20189;-80
2021/07/03 13:18:39;;;;;;;4.17;0.63;;;;;;;;;;4870644;28;20260;-80
2021/07/03 13:21:20;;;;;;;3.10;0.50;;;;;;;;;;4865924;28;20189;-75
2021/07/03 13:24:01;;;;;;;2.27;0.40;;;;;;;;;;4858463;28;20209;-79
2021/07/03 13:26:44;;;;;;;5.67;0.80;;;25.20;99.90;;;;;;4858032;28;20186;-79
2021/07/03 13:29:26;;;;;;;13.47;1.83;;;;;;;;;;4858520;28;20189;-78
2021/07/03 13:32:08;;;;;;;6.47;0.90;;;24.80;99.90;;;;;;4875853;28;20674;-75
2021/07/03 13:34:49;;;;;;;6.10;0.90;;;;;;;;;;4865169;28;20192;-75
2021/07/03 13:37:30;;;;;;;10.03;1.40;;;;;;;;;;4858142;28;20186;-78
2021/07/03 13:40:12;;;;;;;5.53;0.80;;;23.90;99.90;;;;;;4858283;28;20168;-81
2021/07/03 13:42:55;;;;;;;6.93;1.00;;;24.50;99.90;;;;;;4858315;28;20179;-81
2021/07/03 13:45:36;;;;;;;14.33;1.80;;;;;;;;;;4874995;28;20208;-79
2021/07/03 13:48:17;;;;;;;5.67;0.80;;;;;;;;;;4876500;28;20273;-79
2021/07/03 13:50:58;;;;;;;6.70;1.00;;;;;;;;;;4876407;28;20180;-81
2021/07/03 13:53:40;;;;;;;6.53;0.93;;;;;;;;;;4876044;28;20219;-76
2021/07/03 13:56:21;;;;;;;3.53;0.50;;;;;;;;;;4858013;28;20261;-78
2021/07/03 13:59:04;;;;;;;4.70;0.73;;;24.70;99.90;;;;;;4858124;28;20629;-80
2021/07/03 14:01:45;;;;;;;5.23;0.80;;;;;;;;;;4855828;28;20200;-77
2021/07/03 14:04:27;;;;;;;13.13;1.80;;;;;;;;;;4866880;28;20199;-75
2021/07/03 14:07:09;;;;;;;6.87;1.00;;;;;;;;;;4877434;28;20610;-76
2021/07/03 14:09:50;;;;;;;6.13;0.90;;;;;;;;;;4877197;28;20180;-78